Time;durP1;ratioP1;P1;durP2;ratioP2;P2;SDS_P1;SDS_P2;PMS_P1;PMS_P2;Temp;Humidity;BMP_temperature;BMP_pressure;BME280_temperature;BME280_humidity;BME280_pressure;Samples;Min_cycle;Max_cycle;Signal;HPM_P1;HPM_P2
2023/07/04 00:01:48;;;;;;;7.53;1.75;;;14.10;99.90;;;;;;4985663;28;20053;-38
2023/07/04 00:04:18;;;;;;;7.60;1.40;;;14.10;99.90;;;;;;4978007;28;20065;-37
2023/07/04 00:06:47;;;;;;;15.20;2.67;;;14.10;99.90;;;;;;4965014;28;20073;-36
2023/07/04 00:09:13;;;;;;;8.25;1.38;;;14.10;99.90;;;;;;4976054;28;20592;-37
2023/07/04 00:11:38;;;;;;;5.60;1.45;;;14.10;99.90;;;;;;4974876;28;20053;-36
2023/07/04 00:14:04;;;;;;;10.00;2.03;;;14.00;99.90;;;;;;4980037;28;20439;-37
2023/07/04 00:16:30;;;;;;;7.07;1.88;;;14.00;99.90;;;;;;4971097;28;20054;-37
2023/07/04 00:18:56;;;;;;;9.27;1.63;;;14.00;99.90;;;;;;4966077;28;20058;-36
2023/07/04 00:21:22;;;;;;;9.45;1.85;;;13.90;99.90;;;;;;4968187;28;20061;-36
2023/07/04 00:23:52;;;;;;;7.00;1.58;;;13.90;99.90;;;;;;4967381;28;20427;-36
2023/07/04 00:26:20;;;;;;;8.82;2.78;;;13.90;99.90;;;;;;4968466;28;20050;-36
2023/07/04 00:28:46;;;;;;;6.32;1.73;;;13.90;99.90;;;;;;4951372;28;20054;-37
2023/07/04 00:31:15;;;;;;;6.03;1.45;;;13.90;99.90;;;;;;4986533;28;20101;-37
2023/07/04 00:33:43;;;;;;;7.97;2.20;;;13.90;99.90;;;;;;4967772;28;20073;-36
2023/07/04 00:36:12;;;;;;;7.68;1.50;;;14.00;99.90;;;;;;4967520;28;20491;-36
2023/07/04 00:38:40;;;;;;;10.20;2.15;;;13.90;99.90;;;;;;4964935;28;20050;-37
2023/07/04 00:41:15;;;;;;;5.93;1.20;;;13.90;99.90;;;;;;4966783;28;20120;-37
2023/07/04 00:46:40;;;;;;;10.45;1.60;;;13.90;99.90;;;;;;4968634;28;20416;-36
2023/07/04 00:49:17;;;;;;;4.75;1.20;;;13.90;99.90;;;;;;4974869;28;20050;-37
2023/07/04 00:51:47;;;;;;;8.45;1.65;;;13.90;99.90;;;;;;4962082;28;20496;-37
2023/07/04 00:54:15;;;;;;;6.45;1.23;;;13.90;99.90;;;;;;4967039;28;20058;-37
2023/07/04 00:56:41;;;;;;;6.93;1.65;;;13.80;99.90;;;;;;4984151;28;20125;-37
2023/07/04 00:59:09;;;;;;;6.40;1.23;;;13.80;99.90;;;;;;4967822;28;20133;-36
2023/07/04 01:01:37;;;;;;;5.35;1.17;;;13.70;99.90;;;;;;4982341;28;20563;-37
2023/07/04 01:04:04;;;;;;;6.55;1.67;;;13.70;99.90;;;;;;4963961;28;20046;-36
2023/07/04 01:06:58;;;;;;;5.45;1.25;;;13.60;99.90;;;;;;4964477;28;20062;-37
2023/07/04 01:09:24;;;;;;;6.82;1.58;;;13.60;99.90;;;;;;4967854;28;20062;-37
2023/07/04 01:11:52;;;;;;;5.82;1.20;;;13.50;99.90;;;;;;4966574;28;20488;-37
2023/07/04 01:14:21;;;;;;;6.93;1.55;;;13.40;99.90;;;;;;4968174;28;20053;-37
2023/07/04 01:16:46;;;;;;;6.75;1.35;;;13.40;99.90;;;;;;4960025;28;20077;-37
2023/07/04 01:19:19;;;;;;;3.72;1.13;;;13.30;99.90;;;;;;4984529;28;20070;-37
2023/07/04 01:21:50;;;;;;;3.45;1.23;;;13.30;99.90;;;;;;4985043;28;20058;-38
2023/07/04 01:24:29;;;;;;;7.53;2.13;;;13.20;99.90;;;;;;4983822;28;20047;-38
2023/07/04 01:26:56;;;;;;;6.20;1.25;;;13.20;99.90;;;;;;4972379;28;20054;-38
2023/07/04 01:29:22;;;;;;;5.88;2.05;;;13.20;99.90;;;;;;4985263;28;20606;-38
2023/07/04 01:31:48;;;;;;;8.98;2.17;;;13.10;99.90;;;;;;4983760;28;20069;-37
2023/07/04 01:34:20;;;;;;;4.28;1.25;;;13.10;99.90;;;;;;4983486;28;20097;-37
2023/07/04 01:36:47;;;;;;;5.32;2.03;;;13.10;99.90;;;;;;4980029;28;20061;-36
2023/07/04 01:39:17;;;;;;;5.85;1.40;;;13.10;99.90;;;;;;4984330;28;20496;-37
2023/07/04 01:41:45;;;;;;;6.80;1.25;;;13.00;99.90;;;;;;4984619;28;20077;-37
2023/07/04 01:44:12;;;;;;;5.10;1.80;;;13.00;99.90;;;;;;4979926;28;20067;-37
2023/07/04 01:46:38;;;;;;;5.40;1.70;;;13.00;99.90;;;;;;4963889;28;20442;-37
2023/07/04 01:49:04;;;;;;;5.78;1.67;;;13.00;99.90;;;;;;4966269;28;21253;-37
2023/07/04 01:51:40;;;;;;;7.32;1.65;;;12.90;99.90;;;;;;4957112;28;20073;-37
2023/07/04 01:54:07;;;;;;;6.68;1.35;;;12.90;99.90;;;;;;4982181;28;20077;-37
2023/07/04 01:56:36;;;;;;;6.97;1.90;;;12.90;99.90;;;;;;4960721;28;20062;-37
2023/07/04 01:59:01;;;;;;;5.97;1.48;;;12.90;99.90;;;;;;4977150;28;20058;-37
2023/07/04 02:01:27;;;;;;;3.92;1.33;;;12.90;99.90;;;;;;4974440;28;20054;-36
2023/07/04 02:03:53;;;;;;;6.95;1.65;;;12.90;99.90;;;;;;4964595;28;20049;-37
2023/07/04 02:06:19;;;;;;;7.00;1.77;;;12.90;99.90;;;;;;4963343;28;20089;-37
2023/07/04 02:08:45;;;;;;;7.32;1.60;;;12.90;99.90;;;;;;4981662;28;20238;-36
2023/07/04 02:11:12;;;;;;;5.85;1.50;;;12.90;99.90;;;;;;4970218;28;20067;-37
2023/07/04 02:13:38;;;;;;;4.60;1.13;;;12.90;99.90;;;;;;4962377;28;20051;-37
2023/07/04 02:16:04;;;;;;;5.82;1.65;;;12.90;99.90;;;;;;4941334;28;20078;-37
2023/07/04 02:18:30;;;;;;;9.35;2.25;;;13.00;99.90;;;;;;4946006;28;20055;-37
2023/07/04 02:20:56;;;;;;;5.15;1.48;;;13.00;99.90;;;;;;4971352;28;20444;-37
2023/07/04 02:23:21;;;;;;;8.45;2.97;;;13.10;99.90;;;;;;4980294;28;20054;-37
2023/07/04 02:25:48;;;;;;;10.82;1.63;;;13.10;99.90;;;;;;4980177;28;20043;-36
2023/07/04 02:28:14;;;;;;;6.72;2.05;;;13.10;99.90;;;;;;4982488;28;20054;-38
2023/07/04 02:30:42;;;;;;;10.70;1.90;;;13.20;99.90;;;;;;4964724;28;20409;-37
2023/07/04 02:33:08;;;;;;;5.38;1.63;;;13.20;99.90;;;;;;4961764;28;20051;-36
2023/07/04 02:35:33;;;;;;;7.45;2.00;;;13.20;99.90;;;;;;4962623;28;20070;-38
2023/07/04 02:37:59;;;;;;;6.13;1.73;;;13.20;99.90;;;;;;4958493;28;20050;-36
2023/07/04 02:40:25;;;;;;;8.77;1.98;;;13.20;99.90;;;;;;4965015;28;20101;-37
2023/07/04 02:42:50;;;;;;;6.85;2.05;;;13.20;99.90;;;;;;4971044;28;20489;-36
2023/07/04 02:45:16;;;;;;;7.97;1.85;;;13.20;99.90;;;;;;4965974;28;20058;-37
2023/07/04 02:47:42;;;;;;;6.13;1.98;;;13.10;99.90;;;;;;4962240;28;20047;-37
2023/07/04 02:50:08;;;;;;;7.18;1.67;;;13.10;99.90;;;;;;4962123;28;20065;-37
2023/07/04 02:52:33;;;;;;;8.88;1.67;;;13.20;99.90;;;;;;4967870;28;20519;-36
2023/07/04 02:54:59;;;;;;;8.63;2.25;;;13.10;99.90;;;;;;4971593;28;20432;-37
2023/07/04 02:57:25;;;;;;;6.25;1.60;;;13.10;99.90;;;;;;4980914;28;20062;-37
2023/07/04 02:59:50;;;;;;;9.18;1.63;;;13.10;99.90;;;;;;4968778;28;20050;-37
2023/07/04 03:02:17;;;;;;;6.30;1.50;;;13.10;99.90;;;;;;4961604;28;20047;-36
2023/07/04 03:04:43;;;;;;;6.75;1.90;;;13.10;99.90;;;;;;4969395;28;20515;-38
2023/07/04 03:07:09;;;;;;;6.13;1.70;;;13.10;99.90;;;;;;4956531;28;20500;-37
2023/07/04 03:09:35;;;;;;;4.97;1.60;;;13.10;99.90;;;;;;4981457;28;20050;-37
2023/07/04 03:12:00;;;;;;;6.72;1.75;;;13.10;99.90;;;;;;4980728;28;20057;-38
2023/07/04 03:14:26;;;;;;;5.32;1.85;;;13.10;99.90;;;;;;4962455;28;20055;-37
2023/07/04 03:16:52;;;;;;;10.27;3.72;;;13.10;99.90;;;;;;4963565;28;20504;-37
2023/07/04 03:19:18;;;;;;;6.68;2.20;;;13.10;99.90;;;;;;4967347;28;20424;-37
2023/07/04 03:21:43;;;;;;;6.05;1.60;;;13.10;99.90;;;;;;4966135;28;21192;-37
2023/07/04 03:24:09;;;;;;;7.63;2.50;;;13.10;99.90;;;;;;4963870;28;20440;-37
2023/07/04 03:26:35;;;;;;;7.32;1.80;;;13.10;99.90;;;;;;4983695;28;20046;-37
2023/07/04 03:29:01;;;;;;;6.10;2.33;;;13.10;99.90;;;;;;4969463;28;21246;-37
2023/07/04 03:31:27;;;;;;;9.02;1.65;;;13.10;99.90;;;;;;4985045;28;20551;-36
2023/07/04 03:33:53;;;;;;;6.50;1.92;;;13.10;99.90;;;;;;4978109;28;20054;-35
2023/07/04 03:36:19;;;;;;;9.63;1.75;;;13.10;99.90;;;;;;4968129;28;20424;-36
2023/07/04 03:38:45;;;;;;;6.32;1.92;;;13.10;99.90;;;;;;4978594;28;20050;-37
2023/07/04 03:41:10;;;;;;;8.25;1.85;;;13.10;99.90;;;;;;4985569;28;20089;-38
2023/07/04 03:43:36;;;;;;;9.65;1.80;;;13.10;99.90;;;;;;4980467;28;20105;-38
2023/07/04 03:46:02;;;;;;;6.47;2.17;;;13.10;99.90;;;;;;4967259;28;20452;-39
2023/07/04 03:48:28;;;;;;;10.63;2.75;;;13.10;99.90;;;;;;4963619;28;20058;-36
2023/07/04 03:50:54;;;;;;;6.85;1.75;;;13.10;99.90;;;;;;4968259;28;20046;-38
2023/07/04 03:53:20;;;;;;;4.95;1.70;;;13.10;99.90;;;;;;4963401;28;20051;-38
2023/07/04 03:55:47;;;;;;;8.23;2.30;;;13.10;99.90;;;;;;4973562;28;20050;-38
2023/07/04 03:58:13;;;;;;;5.15;1.40;;;13.10;99.90;;;;;;4969347;28;20043;-37
2023/07/04 04:00:38;;;;;;;3.88;1.15;;;13.10;99.90;;;;;;4978654;28;20057;-38
2023/07/04 04:03:04;;;;;;;4.75;1.35;;;13.10;99.90;;;;;;4964576;28;20054;-37
2023/07/04 04:05:30;;;;;;;6.18;0.90;;;13.20;99.90;;;;;;4965008;28;20049;-37
2023/07/04 04:07:55;;;;;;;6.15;1.33;;;13.20;99.90;;;;;;4946227;28;20170;-37
2023/07/04 04:10:40;;;;;;;7.10;1.35;;;13.20;99.90;;;;;;4984819;28;20510;-38
2023/07/04 04:13:25;;;;;;;3.83;1.30;;;13.20;99.90;;;;;;4963627;28;20074;-38
2023/07/04 04:15:51;;;;;;;3.45;1.20;;;13.20;99.90;;;;;;4974243;28;20129;-38
2023/07/04 04:18:17;;;;;;;5.40;1.38;;;13.20;99.90;;;;;;4963861;28;20480;-37
2023/07/04 04:20:43;;;;;;;3.78;0.88;;;13.30;99.90;;;;;;4957105;28;20055;-37
2023/07/04 04:23:09;;;;;;;6.10;1.10;;;13.30;99.90;;;;;;4981352;28;20168;-36
2023/07/04 04:25:38;;;;;;;4.13;1.27;;;13.30;99.90;;;;;;4971437;28;20125;-36
2023/07/04 04:28:08;;;;;;;4.65;1.20;;;13.30;99.90;;;;;;4965821;28;20051;-37
2023/07/04 04:30:34;;;;;;;3.70;0.93;;;13.30;99.90;;;;;;4963715;28;20065;-37
2023/07/04 04:33:02;;;;;;;5.00;1.10;;;13.30;99.90;;;;;;4971366;28;20484;-41
2023/07/04 04:35:28;;;;;;;3.90;1.40;;;13.30;99.90;;;;;;4963329;28;20055;-37
2023/07/04 04:37:54;;;;;;;4.43;1.25;;;13.20;99.90;;;;;;4974799;28;20070;-36
2023/07/04 04:40:19;;;;;;;5.10;0.90;;;13.30;99.90;;;;;;4978511;28;20141;-37
2023/07/04 04:42:47;;;;;;;5.55;1.33;;;13.30;99.90;;;;;;4969972;28;20055;-37
2023/07/04 04:45:14;;;;;;;3.03;1.13;;;13.30;99.90;;;;;;4963909;28;20054;-37
2023/07/04 04:47:40;;;;;;;7.57;1.15;;;13.30;99.90;;;;;;4967293;28;20055;-37
2023/07/04 04:50:06;;;;;;;3.13;1.15;;;13.30;99.90;;;;;;4971829;28;20053;-36
2023/07/04 04:52:32;;;;;;;4.20;0.80;;;13.30;99.90;;;;;;4987009;28;20152;-36
2023/07/04 04:55:01;;;;;;;4.43;1.27;;;13.30;99.90;;;;;;4980872;28;20050;-36
2023/07/04 04:57:28;;;;;;;5.40;0.90;;;13.30;99.90;;;;;;4985152;28;20046;-37
2023/07/04 04:59:59;;;;;;;4.60;1.45;;;13.30;99.90;;;;;;4965827;28;20588;-37
2023/07/04 05:02:25;;;;;;;8.70;1.13;;;13.30;99.90;;;;;;4980711;28;20051;-38
2023/07/04 05:04:51;;;;;;;3.92;1.35;;;13.40;99.90;;;;;;4975083;28;20050;-38
2023/07/04 05:07:18;;;;;;;3.47;1.10;;;13.40;99.90;;;;;;4963929;28;20062;-36
2023/07/04 05:09:43;;;;;;;4.40;1.05;;;13.40;99.90;;;;;;4962260;28;20094;-37
2023/07/04 05:12:09;;;;;;;5.38;1.05;;;13.40;99.90;;;;;;4980562;28;20046;-37
2023/07/04 05:14:35;;;;;;;2.70;1.20;;;13.40;99.90;;;;;;4981071;28;20066;-37
2023/07/04 05:17:01;;;;;;;3.72;1.05;;;13.40;99.90;;;;;;4961303;28;20058;-37
2023/07/04 05:19:26;;;;;;;6.15;1.08;;;13.40;99.90;;;;;;4962757;28;20390;-36
2023/07/04 05:21:52;;;;;;;5.85;1.00;;;13.50;99.90;;;;;;4966378;28;20128;-37
2023/07/04 05:24:17;;;;;;;2.58;0.80;;;13.60;99.90;;;;;;4964219;28;20058;-37
2023/07/04 05:26:43;;;;;;;3.40;1.05;;;13.60;99.90;;;;;;4961111;28;20181;-38
2023/07/04 05:29:09;;;;;;;2.78;0.75;;;13.60;99.90;;;;;;4962071;28;20515;-36
2023/07/04 05:31:34;;;;;;;4.95;1.13;;;13.70;99.90;;;;;;4962913;28;20168;-36
2023/07/04 05:34:00;;;;;;;2.97;0.80;;;13.70;99.90;;;;;;4967618;28;20124;-36
2023/07/04 05:36:28;;;;;;;5.10;1.00;;;13.70;99.90;;;;;;4967469;28;20133;-36
2023/07/04 05:38:59;;;;;;;3.47;0.88;;;13.80;99.90;;;;;;4962163;28;20057;-35
2023/07/04 05:41:27;;;;;;;5.15;0.90;;;13.80;99.90;;;;;;4964134;28;20492;-36
2023/07/04 05:43:57;;;;;;;5.05;1.00;;;13.80;99.90;;;;;;4968725;28;20572;-36
2023/07/04 05:46:23;;;;;;;5.35;0.82;;;13.90;99.90;;;;;;4960595;28;20046;-35
2023/07/04 05:48:49;;;;;;;4.72;1.67;;;13.90;99.90;;;;;;4960364;28;20061;-37
2023/07/04 05:51:16;;;;;;;4.50;0.80;;;13.90;99.90;;;;;;4964423;28;20894;-36
2023/07/04 05:53:49;;;;;;;3.28;0.75;;;14.00;99.90;;;;;;4937689;28;20054;-37
2023/07/04 05:56:24;;;;;;;3.50;1.00;;;14.00;99.90;;;;;;4945457;28;20046;-37
2023/07/04 05:58:53;;;;;;;2.78;0.88;;;14.10;99.90;;;;;;4955735;28;20559;-37
2023/07/04 06:01:24;;;;;;;2.72;1.00;;;14.00;99.90;;;;;;4949296;28;20062;-37
2023/07/04 06:03:52;;;;;;;5.13;0.70;;;14.10;99.90;;;;;;4959231;28;20071;-37
2023/07/04 06:06:27;;;;;;;4.95;0.90;;;14.10;99.90;;;;;;4945714;28;20137;-37
2023/07/04 06:08:55;;;;;;;3.60;0.60;;;14.20;99.90;;;;;;4941249;28;20136;-37
2023/07/04 06:11:22;;;;;;;3.65;0.88;;;14.30;99.90;;;;;;4936462;28;20054;-37
2023/07/04 06:13:48;;;;;;;3.60;0.90;;;14.40;99.90;;;;;;4936804;28;20570;-37
2023/07/04 06:16:14;;;;;;;2.70;0.55;;;14.40;99.90;;;;;;4937143;28;20055;-37
2023/07/04 06:18:39;;;;;;;2.45;0.52;;;14.50;99.90;;;;;;4941747;28;20055;-37
2023/07/04 06:21:15;;;;;;;5.75;1.35;;;14.50;99.90;;;;;;4949064;28;20082;-37
2023/07/04 06:23:42;;;;;;;4.40;0.70;;;14.50;99.90;;;;;;4958621;28;20188;-38
2023/07/04 06:26:09;;;;;;;5.53;0.70;;;14.60;99.90;;;;;;4949372;28;20118;-37
2023/07/04 06:28:36;;;;;;;7.15;0.80;;;14.70;99.90;;;;;;4943841;28;20167;-38
2023/07/04 06:31:06;;;;;;;2.30;0.57;;;14.90;99.90;;;;;;4954575;28;20055;-38
2023/07/04 06:33:32;;;;;;;3.70;0.70;;;15.00;99.90;;;;;;4964275;28;20500;-38
2023/07/04 06:35:59;;;;;;;3.83;0.85;;;15.10;99.90;;;;;;4949767;28;20058;-37
2023/07/04 06:38:26;;;;;;;4.63;1.13;;;15.10;99.90;;;;;;4949732;28;20071;-37
2023/07/04 06:40:56;;;;;;;3.75;1.05;;;15.10;99.90;;;;;;4952584;28;20074;-37
2023/07/04 06:43:24;;;;;;;5.28;1.13;;;15.20;99.90;;;;;;4944444;28;20051;-37
2023/07/04 06:45:49;;;;;;;2.92;0.60;;;15.40;99.90;;;;;;4945128;28;20505;-37
2023/07/04 06:48:15;;;;;;;3.35;0.80;;;15.50;99.90;;;;;;4950431;28;20399;-37
2023/07/04 06:50:42;;;;;;;2.05;0.60;;;15.60;99.90;;;;;;4944370;28;20078;-37
2023/07/04 06:53:08;;;;;;;5.90;0.68;;;15.70;99.90;;;;;;4952434;28;20493;-39
2023/07/04 06:55:33;;;;;;;4.47;0.70;;;15.70;99.90;;;;;;4962891;28;20054;-37
2023/07/04 06:57:59;;;;;;;3.17;0.70;;;15.80;99.90;;;;;;4965555;28;20054;-37
2023/07/04 07:00:25;;;;;;;3.25;0.68;;;16.10;99.90;;;;;;4945114;28;20058;-38
2023/07/04 07:02:51;;;;;;;5.20;1.40;;;16.20;99.90;;;;;;4962122;28;20046;-37
2023/07/04 07:05:18;;;;;;;4.47;0.70;;;16.20;99.90;;;;;;4980822;28;20054;-38
2023/07/04 07:07:45;;;;;;;3.10;0.80;;;16.30;99.90;;;;;;4985850;28;20038;-37
2023/07/04 07:10:11;;;;;;;4.25;0.40;;;16.30;99.90;;;;;;4981357;28;20501;-37
2023/07/04 07:12:37;;;;;;;6.82;0.93;;;16.40;99.90;;;;;;4964690;28;20055;-37
2023/07/04 07:15:03;;;;;;;2.92;0.80;;;16.50;99.90;;;;;;4964961;28;20058;-37
2023/07/04 07:17:28;;;;;;;6.32;0.60;;;16.60;99.90;;;;;;4968233;28;21360;-36
2023/07/04 07:19:54;;;;;;;2.88;0.40;;;16.80;99.90;;;;;;4982782;28;20069;-38
2023/07/04 07:22:20;;;;;;;3.15;0.65;;;16.80;99.90;;;;;;4985512;28;20373;-36
2023/07/04 07:24:45;;;;;;;6.68;1.02;;;17.00;99.90;;;;;;4983147;28;20057;-36
2023/07/04 07:27:11;;;;;;;3.38;0.40;;;17.20;99.90;;;;;;4982384;28;20165;-36
2023/07/04 07:29:37;;;;;;;4.85;0.70;;;17.30;99.90;;;;;;4967041;28;20062;-37
2023/07/04 07:32:04;;;;;;;6.93;0.95;;;17.30;99.90;;;;;;4963977;28;20437;-37
2023/07/04 07:34:30;;;;;;;3.72;1.58;;;17.30;99.90;;;;;;4963764;28;20481;-36
2023/07/04 07:36:56;;;;;;;2.97;0.77;;;17.40;99.90;;;;;;4961433;28;20050;-36
2023/07/04 07:39:22;;;;;;;6.50;1.67;;;17.40;99.90;;;;;;4965358;28;20081;-36
2023/07/04 07:41:48;;;;;;;6.40;0.70;;;17.40;99.90;;;;;;4964085;28;20058;-38
2023/07/04 07:44:16;;;;;;;6.38;1.23;;;17.60;99.90;;;;;;4965577;28;20571;-36
2023/07/04 07:46:42;;;;;;;4.90;1.05;;;17.50;99.90;;;;;;4961834;28;20069;-35
2023/07/04 07:49:08;;;;;;;8.52;0.73;;;17.50;99.90;;;;;;4964154;28;20061;-37
2023/07/04 07:51:34;;;;;;;5.55;1.67;;;17.30;99.90;;;;;;4964995;28;20055;-37
2023/07/04 07:54:01;;;;;;;6.03;0.90;;;17.20;99.90;;;;;;4960977;28;20485;-38
2023/07/04 07:56:32;;;;;;;4.82;0.93;;;17.10;99.90;;;;;;4971100;28;20051;-37
2023/07/04 07:58:58;;;;;;;3.40;1.00;;;17.00;99.90;;;;;;4964943;28;20050;-37
2023/07/04 08:01:31;;;;;;;3.42;0.77;;;17.10;99.90;;;;;;4967377;28;20058;-37
2023/07/04 08:03:58;;;;;;;4.13;0.70;;;17.00;99.90;;;;;;4959386;28;20074;-37
2023/07/04 08:06:41;;;;;;;6.97;1.10;;;17.10;99.90;;;;;;4987356;28;20050;-37
2023/07/04 08:09:10;;;;;;;6.53;1.10;;;17.10;99.90;;;;;;4981977;28;20405;-37
2023/07/04 08:11:37;;;;;;;4.60;0.70;;;17.10;99.90;;;;;;4980025;28;20072;-37
2023/07/04 08:14:03;;;;;;;6.97;0.93;;;17.20;99.90;;;;;;4966798;28;20500;-37
2023/07/04 08:16:48;;;;;;;7.07;0.80;;;17.30;99.90;;;;;;4981445;28;20053;-38
2023/07/04 08:19:15;;;;;;;5.32;1.00;;;17.40;99.90;;;;;;4982264;28;20492;-37
2023/07/04 08:21:42;;;;;;;4.03;0.90;;;17.40;99.90;;;;;;4972880;28;20042;-37
2023/07/04 08:24:10;;;;;;;8.63;0.85;;;17.30;99.90;;;;;;4967181;28;20141;-37
2023/07/04 08:26:38;;;;;;;7.68;0.95;;;17.30;99.90;;;;;;4966611;28;20073;-38
2023/07/04 08:29:05;;;;;;;6.30;0.75;;;17.30;99.90;;;;;;4965346;28;20481;-36
2023/07/04 08:31:31;;;;;;;6.20;0.65;;;17.30;99.90;;;;;;4977110;28;20061;-35
2023/07/04 08:33:57;;;;;;;5.50;1.10;;;17.30;99.90;;;;;;4967505;28;20101;-36
2023/07/04 08:36:23;;;;;;;5.75;0.77;;;17.30;99.90;;;;;;4963654;28;20094;-35
2023/07/04 08:38:50;;;;;;;3.00;0.73;;;17.20;99.90;;;;;;4963350;28;20057;-35
2023/07/04 08:41:35;;;;;;;5.53;0.82;;;17.10;99.90;;;;;;4984166;28;20050;-35
2023/07/04 08:44:06;;;;;;;5.75;0.75;;;17.10;99.90;;;;;;4965690;28;20053;-36
2023/07/04 08:46:45;;;;;;;6.57;1.08;;;17.00;99.90;;;;;;4965542;28;20491;-36
2023/07/04 08:49:38;;;;;;;6.15;0.77;;;17.00;99.90;;;;;;4966449;28;20488;-36
2023/07/04 08:52:33;;;;;;;9.32;1.17;;;17.00;99.90;;;;;;4968708;28;20062;-36
2023/07/04 08:54:59;;;;;;;6.93;0.95;;;17.10;99.90;;;;;;4976988;28;20146;-36
2023/07/04 08:57:40;;;;;;;6.30;1.08;;;17.10;99.90;;;;;;4976947;28;20078;-36
2023/07/04 09:00:09;;;;;;;4.22;0.70;;;17.10;99.90;;;;;;4982967;28;20046;-36
2023/07/04 09:03:11;;;;;;;4.65;0.70;;;17.20;99.90;;;;;;4987270;28;20154;-36
2023/07/04 09:05:56;;;;;;;4.03;0.60;;;17.30;99.90;;;;;;4986990;28;20084;-36
2023/07/04 09:08:25;;;;;;;4.45;0.80;;;17.40;99.90;;;;;;4984244;28;20061;-36
2023/07/04 09:10:56;;;;;;;5.45;1.65;;;17.60;99.90;;;;;;4983068;28;20050;-36
2023/07/04 09:13:40;;;;;;;4.53;0.87;;;17.60;99.90;;;;;;4984849;28;20062;-36
2023/07/04 09:16:20;;;;;;;4.80;0.70;;;17.80;99.90;;;;;;4977527;28;20484;-36
2023/07/04 09:19:03;;;;;;;3.60;1.00;;;18.00;99.90;;;;;;4966864;28;20074;-35
2023/07/04 09:21:30;;;;;;;3.80;0.95;;;18.00;99.90;;;;;;4966536;28;20137;-35
2023/07/04 09:24:01;;;;;;;7.38;1.27;;;18.10;99.90;;;;;;4965951;28;20047;-35
2023/07/04 09:26:46;;;;;;;7.70;0.93;;;18.00;99.90;;;;;;4964119;28;20050;-34
2023/07/04 09:29:16;;;;;;;7.22;1.00;;;17.90;99.90;;;;;;4965148;28;20298;-35
2023/07/04 09:31:44;;;;;;;6.43;1.13;;;17.80;99.90;;;;;;4966631;28;20051;-35
2023/07/04 09:34:38;;;;;;;4.20;1.38;;;18.10;99.90;;;;;;4973837;28;20113;-35
2023/07/04 09:37:15;;;;;;;5.55;1.15;;;18.40;99.90;;;;;;4958455;28;20584;-35
2023/07/04 09:39:46;;;;;;;8.23;1.33;;;18.80;99.90;;;;;;4964583;28;20070;-34
2023/07/04 09:42:12;;;;;;;7.85;1.30;;;19.10;99.90;;;;;;4969529;28;20113;-35
2023/07/04 09:44:38;;;;;;;4.32;0.88;;;19.30;99.90;;;;;;4980460;28;20061;-35
2023/07/04 09:47:05;;;;;;;6.72;1.08;;;19.40;99.90;;;;;;4973192;28;20476;-35
2023/07/04 09:49:36;;;;;;;6.40;0.95;;;19.30;99.90;;;;;;4965919;28;20047;-36
2023/07/04 09:52:13;;;;;;;5.05;1.02;;;19.20;99.90;;;;;;4962209;28;20113;-35
2023/07/04 09:54:41;;;;;;;5.10;0.70;;;19.40;99.90;;;;;;4965342;28;20113;-35
2023/07/04 09:57:20;;;;;;;4.85;0.60;;;19.50;99.90;;;;;;4975723;28;20063;-35
2023/07/04 09:59:46;;;;;;;5.25;0.93;;;19.50;99.90;;;;;;4962112;28;20051;-35
2023/07/04 10:02:33;;;;;;;7.15;0.82;;;19.50;99.90;;;;;;4984050;28;20109;-35
2023/07/04 10:05:00;;;;;;;3.83;0.80;;;19.50;99.90;;;;;;4979036;28;20050;-35
2023/07/04 10:07:26;;;;;;;4.60;1.15;;;19.40;99.90;;;;;;4981322;28;20053;-35
2023/07/04 10:09:57;;;;;;;7.88;1.00;;;19.30;99.90;;;;;;4971552;28;20058;-36
2023/07/04 10:12:24;;;;;;;6.85;1.30;;;19.10;99.90;;;;;;4962550;28;20066;-36
2023/07/04 10:14:56;;;;;;;9.45;1.15;;;18.70;99.90;;;;;;4984378;28;20053;-36
2023/07/04 10:17:27;;;;;;;4.60;1.17;;;18.50;99.90;;;;;;4981757;28;20100;-36
2023/07/04 10:19:57;;;;;;;6.30;1.42;;;18.40;99.90;;;;;;4983936;28;20054;-36
2023/07/04 10:22:33;;;;;;;6.93;1.40;;;18.30;99.90;;;;;;4984040;28;20141;-38
2023/07/04 10:25:00;;;;;;;3.50;0.73;;;18.20;99.90;;;;;;4963681;28;20070;-35
2023/07/04 10:27:34;;;;;;;2.95;0.80;;;18.20;99.90;;;;;;4961548;28;20054;-35
2023/07/04 10:30:03;;;;;;;3.67;0.68;;;18.20;99.90;;;;;;4968137;28;20080;-35
2023/07/04 10:32:34;;;;;;;7.65;1.10;;;18.30;99.90;;;;;;4984993;28;20054;-35
2023/07/04 10:35:00;;;;;;;5.03;0.57;;;18.40;99.90;;;;;;4967976;28;20046;-35
2023/07/04 10:37:34;;;;;;;4.35;0.68;;;18.40;99.90;;;;;;4959401;28;20054;-35
2023/07/04 10:40:08;;;;;;;3.22;0.80;;;18.60;99.90;;;;;;4963663;28;20061;-35
2023/07/04 10:42:39;;;;;;;2.03;0.60;;;18.60;99.90;;;;;;4961339;28;20065;-35
2023/07/04 10:45:06;;;;;;;4.18;0.70;;;18.80;99.90;;;;;;4965553;28;20054;-35
2023/07/04 10:47:37;;;;;;;4.35;0.77;;;19.00;99.90;;;;;;4964519;28;20137;-35
2023/07/04 10:50:11;;;;;;;4.07;0.70;;;19.20;99.90;;;;;;4958949;28;20057;-35
2023/07/04 10:52:38;;;;;;;7.18;0.68;;;19.30;99.90;;;;;;4973035;28;20416;-35
2023/07/04 10:55:06;;;;;;;4.13;0.60;;;19.30;99.90;;;;;;4963344;28;20104;-35
2023/07/04 10:57:43;;;;;;;7.45;1.65;;;19.30;99.90;;;;;;4964165;28;20055;-35
2023/07/04 11:00:22;;;;;;;4.32;0.68;;;19.40;99.90;;;;;;4962099;28;20058;-35
2023/07/04 11:02:53;;;;;;;6.03;0.98;;;19.40;99.90;;;;;;4965861;28;20516;-35
2023/07/04 11:05:36;;;;;;;6.22;0.80;;;19.60;99.90;;;;;;4964719;28;20088;-35
2023/07/04 11:08:02;;;;;;;;;;;19.80;99.90;;;;;;4961774;28;20059;-35
2023/07/04 11:10:31;;;;;;;4.53;0.65;;;19.70;99.90;;;;;;4960961;28;19922;-35
2023/07/04 11:12:57;;;;;;;3.65;0.73;;;19.30;99.90;;;;;;4962856;28;20054;-35
2023/07/04 11:15:29;;;;;;;3.03;0.70;;;19.00;99.90;;;;;;4975213;28;20440;-35
2023/07/04 11:17:55;;;;;;;3.10;0.60;;;18.70;99.90;;;;;;4966550;28;20051;-35
2023/07/04 11:20:38;;;;;;;5.53;1.40;;;18.60;99.90;;;;;;4980519;28;20056;-35
2023/07/04 11:23:14;;;;;;;8.07;1.05;;;18.70;99.90;;;;;;4981728;28;20540;-35
2023/07/04 11:25:49;;;;;;;6.53;0.98;;;19.20;99.90;;;;;;4981252;28;20046;-36
2023/07/04 11:28:19;;;;;;;9.32;1.00;;;19.50;99.90;;;;;;4978639;28;20504;-36
2023/07/04 11:30:48;;;;;;;5.55;1.20;;;19.70;99.90;;;;;;4975625;28;20077;-36
2023/07/04 11:33:34;;;;;;;6.75;1.08;;;20.10;99.90;;;;;;4981754;28;20054;-37
2023/07/04 11:36:06;;;;;;;6.85;0.77;;;20.30;99.90;;;;;;4980397;28;20058;-36
2023/07/04 11:38:34;;;;;;;7.47;1.15;;;20.20;99.90;;;;;;4983600;28;20050;-36
2023/07/04 11:41:01;;;;;;;4.82;1.10;;;20.10;99.90;;;;;;4980194;28;20049;-36
2023/07/04 11:43:34;;;;;;;8.77;0.90;;;20.20;99.90;;;;;;4978945;28;20500;-36
2023/07/04 11:46:01;;;;;;;5.72;0.80;;;20.20;99.90;;;;;;4964650;28;20058;-36
2023/07/04 11:48:31;;;;;;;3.88;0.65;;;20.20;99.90;;;;;;4962476;28;20050;-36
2023/07/04 11:51:10;;;;;;;4.22;0.70;;;20.00;99.90;;;;;;4966067;28;20045;-36
2023/07/04 11:54:00;;;;;;;4.70;0.80;;;19.70;99.90;;;;;;4922207;28;1135673;-36
2023/07/04 11:56:28;;;;;;;6.30;1.75;;;19.40;99.90;;;;;;4965764;28;20047;-36
2023/07/04 11:59:13;;;;;;;6.38;1.20;;;19.20;99.90;;;;;;4971035;28;20113;-36
2023/07/04 12:01:58;;;;;;;2.97;0.68;;;19.10;99.90;;;;;;4965662;28;20058;-35
2023/07/04 12:04:32;;;;;;;4.15;1.00;;;19.00;99.90;;;;;;4968379;28;20499;-35
2023/07/04 12:07:46;;;;;;;7.25;1.08;;;19.20;99.90;;;;;;4969378;28;20053;-35
2023/07/04 12:10:21;;;;;;;6.75;1.08;;;19.40;99.90;;;;;;4953513;28;20101;-36
2023/07/04 12:12:58;;;;;;;6.78;0.90;;;19.30;99.90;;;;;;4970127;28;20051;-36
2023/07/04 12:15:30;;;;;;;3.88;0.75;;;19.20;99.90;;;;;;4973303;28;20051;-38
2023/07/04 12:17:59;;;;;;;6.00;0.98;;;19.00;99.90;;;;;;4970957;28;20054;-36
2023/07/04 12:20:30;;;;;;;3.65;0.68;;;18.90;99.90;;;;;;4976105;28;20448;-36
2023/07/04 12:22:59;;;;;;;4.85;0.75;;;18.80;99.90;;;;;;4967606;28;20047;-36
2023/07/04 12:25:27;;;;;;;5.32;1.48;;;18.80;99.90;;;;;;4964718;28;20054;-35
2023/07/04 12:27:58;;;;;;;3.30;0.70;;;18.80;99.90;;;;;;4967883;28;20130;-35
2023/07/04 12:30:24;;;;;;;10.05;0.93;;;18.70;99.90;;;;;;4966460;28;20054;-35
2023/07/04 12:32:53;;;;;;;7.95;0.93;;;18.70;99.90;;;;;;4975295;28;20061;-35
2023/07/04 12:35:25;;;;;;;6.82;0.90;;;18.80;99.90;;;;;;4974731;28;20555;-35
2023/07/04 12:37:54;;;;;;;5.13;1.00;;;18.80;99.90;;;;;;4963431;28;20109;-37
2023/07/04 12:40:23;;;;;;;3.65;0.88;;;19.20;99.90;;;;;;4962305;28;20785;-36
2023/07/04 12:42:49;;;;;;;5.68;0.88;;;19.50;99.90;;;;;;4967397;28;20057;-36
2023/07/04 12:45:20;;;;;;;4.53;0.80;;;19.80;99.90;;;;;;4951526;28;20051;-37
2023/07/04 12:47:47;;;;;;;7.63;0.95;;;20.00;99.90;;;;;;4964374;28;20048;-36
2023/07/04 12:50:16;;;;;;;4.70;1.00;;;19.90;99.90;;;;;;4975028;28;20146;-37
2023/07/04 12:52:45;;;;;;;5.57;1.00;;;19.70;99.90;;;;;;4967454;28;20522;-36
2023/07/04 12:55:27;;;;;;;5.00;1.38;;;19.60;99.90;;;;;;4973517;28;20054;-37
2023/07/04 12:57:54;;;;;;;4.03;0.70;;;19.50;99.90;;;;;;4965133;28;20055;-36
2023/07/04 13:00:58;;;;;;;6.15;0.75;;;19.40;99.90;;;;;;4965677;28;20512;-36